Suez Canal Bridge — HODM — position and weather

sailwx.info

Track history (hours):
 
Tides and Currents Weather Stations Pressure Air Temp Water Temp Dewpoint Dewpoint Depression Visibility Wind Speed Wind Dir Waves Ship Positions

Suez Canal Bridge

Last reported at 2014-Nov-25 09:14 UTC. Time now 2014-Nov-26 01:28 UTC.
Position N 30°21' E 122°55'.

Length 284.7 m; beam 40 m.

Type: Cargo ship. MMSI: 353704000.

Date/timePositionNaut miles runAvg speedWind from/ knotsBaromVisibWave heightAir tempDewpointWater temp
2014-Nov-25 09:14N 30°21' E 122°55'1620.0
2014-Nov-25 08:26N 30°29' E 122°39'1618.1
2014-Nov-25 07:33N 30°32' E 122°21'1414.2
2014-Nov-25 06:33N 30°36' E 122°05'3 3.0
2014-Nov-25 05:33N 30°38' E 122°03'0 0.0
2014-Nov-25 04:33N 30°38' E 122°03'0 0.0
2014-Nov-25 03:33N 30°38' E 122°03'0 0.0
2014-Nov-25 02:34N 30°38' E 122°03'0 0.0
2014-Nov-25 01:33N 30°38' E 122°03'0 0.0
2014-Nov-25 00:33N 30°38' E 122°03'0 0.0
2014-Nov-24 23:33N 30°38' E 122°03'0 0.0
2014-Nov-24 22:33N 30°38' E 122°03'0 0.0
2014-Nov-24 21:33N 30°38' E 122°03'0 0.0
2014-Nov-24 20:33N 30°38' E 122°03'0 0.0
2014-Nov-24 19:33N 30°38' E 122°03'0 0.0
2014-Nov-24 18:33N 30°38' E 122°03'0 0.0
2014-Nov-24 17:33N 30°38' E 122°03'0 0.0
2014-Nov-24 16:33N 30°38' E 122°03'0 0.0
2014-Nov-24 15:33N 30°38' E 122°03'0 0.0
2014-Nov-24 14:33N 30°38' E 122°03'0 0.0
2014-Nov-24 13:33N 30°38' E 122°03'0 0.0
2014-Nov-24 12:33N 30°38' E 122°03'0 0.0
2014-Nov-24 11:33N 30°38' E 122°03'0 0.0
2014-Nov-24 10:33N 30°38' E 122°03'0 0.0
2014-Nov-24 09:33N 30°38' E 122°03'0 0.0
2014-Nov-24 08:33N 30°38' E 122°03'0 0.0
2014-Nov-24 07:33N 30°38' E 122°03'0 0.0
2014-Nov-24 06:33N 30°38' E 122°03'0 0.0
2014-Nov-24 05:33N 30°38' E 122°03'2 1.8
2014-Nov-24 04:33N 30°37' E 122°04'10 9.7
2014-Nov-24 03:33N 30°34' E 122°15'1414.0
2014-Nov-24 02:33N 30°30' E 122°31'2 1.6
2014-Nov-24 01:19N 30°29' E 122°32'0 0.1
2014-Nov-24 00:25N 30°29' E 122°32'0 0.3
2014-Nov-23 23:31N 30°28' E 122°32'21 1.4
2014-Nov-23 08:24N 30°22' E 122°55'3116.3
2014-Nov-23 06:30N 29°51' E 122°49'1717.8
2014-Nov-23 05:33N 29°41' E 122°34'1717.5
2014-Nov-23 04:33N 29°48' E 122°15'1111.3
2014-Nov-23 03:33N 29°55' E 122°06'3 2.3
2014-Nov-23 02:16N 29°53' E 122°03'0 0.0
2014-Nov-23 01:33N 29°53' E 122°03'0 0.0
2014-Nov-23 00:33N 29°53' E 122°03'0 0.0
2014-Nov-22 23:33N 29°53' E 122°03'0 0.0
2014-Nov-22 22:33N 29°53' E 122°03'0 0.0
2014-Nov-22 21:33N 29°53' E 122°03'0 0.0
2014-Nov-22 20:33N 29°53' E 122°03'0 0.0
2014-Nov-22 19:33N 29°53' E 122°03'0 0.0
2014-Nov-22 18:33N 29°53' E 122°03'0 0.0
2014-Nov-22 17:33N 29°53' E 122°03'0 0.0
2014-Nov-22 16:33N 29°53' E 122°03'0 0.0
2014-Nov-22 15:33N 29°53' E 122°03'0 0.0
2014-Nov-22 14:32N 29°53' E 122°03'0 0.0
2014-Nov-22 13:33N 29°53' E 122°03'0 0.0
2014-Nov-22 12:33N 29°53' E 122°03'0 0.0
2014-Nov-22 11:33N 29°53' E 122°03'0 0.0
2014-Nov-22 10:34N 29°53' E 122°03'0 0.0
2014-Nov-22 09:33N 29°53' E 122°03'0 0.0
2014-Nov-22 08:33N 29°53' E 122°03'1 0.5
2014-Nov-22 07:33N 29°54' E 122°03'8 7.9
2014-Nov-22 06:33N 29°52' E 122°12'1110.4
2014-Nov-22 05:32N 29°45' E 122°21'4 4.0
2014-Nov-22 04:30N 29°45' E 122°26'0 0.1
2014-Nov-22 03:33N 29°45' E 122°26'0 0.2
2014-Nov-22 02:33N 29°45' E 122°25'0 0.3
2014-Nov-22 01:33N 29°45' E 122°26'4 4.4
2014-Nov-22 00:33N 29°43' E 122°30'8 8.0
2014-Nov-21 23:31N 29°35' E 122°34'13 9.5
2014-Nov-21 22:07N 29°22' E 122°33'33612.2
2014-Nov-20 18:26N 24°35' E 119°15'1112.4
2014-Nov-20 17:33N 24°27' E 119°06'1411.7
2014-Nov-20 16:23N 24°18' E 118°56'4511.8
2014-Nov-20 12:33N 23°48' E 118°18'  
Track history (hours):
 
Tides and Currents Weather Stations Pressure Air Temp Water Temp Dewpoint Dewpoint Depression Visibility Wind Speed Wind Dir Waves Ship Positions

Suez Canal Bridge

Last reported at 2014-Nov-25 09:14 UTC. Time now 2014-Nov-26 01:28 UTC.
Position N 30°21' E 122°55'.

Length 284.7 m; beam 40 m.

Type: Cargo ship. MMSI: 353704000.

Date/timePositionNaut miles runAvg speedWind from/ knotsBaromVisibWave heightAir tempDewpointWater temp
2014-Nov-25 09:14N 30°21' E 122°55'1620.0
2014-Nov-25 08:26N 30°29' E 122°39'1618.1
2014-Nov-25 07:33N 30°32' E 122°21'1414.2
2014-Nov-25 06:33N 30°36' E 122°05'3 3.0
2014-Nov-25 05:33N 30°38' E 122°03'0 0.0
2014-Nov-25 04:33N 30°38' E 122°03'0 0.0
2014-Nov-25 03:33N 30°38' E 122°03'0 0.0
2014-Nov-25 02:34N 30°38' E 122°03'0 0.0
2014-Nov-25 01:33N 30°38' E 122°03'0 0.0
2014-Nov-25 00:33N 30°38' E 122°03'0 0.0
2014-Nov-24 23:33N 30°38' E 122°03'0 0.0
2014-Nov-24 22:33N 30°38' E 122°03'0 0.0
2014-Nov-24 21:33N 30°38' E 122°03'0 0.0
2014-Nov-24 20:33N 30°38' E 122°03'0 0.0
2014-Nov-24 19:33N 30°38' E 122°03'0 0.0
2014-Nov-24 18:33N 30°38' E 122°03'0 0.0
2014-Nov-24 17:33N 30°38' E 122°03'0 0.0
2014-Nov-24 16:33N 30°38' E 122°03'0 0.0
2014-Nov-24 15:33N 30°38' E 122°03'0 0.0
2014-Nov-24 14:33N 30°38' E 122°03'0 0.0
2014-Nov-24 13:33N 30°38' E 122°03'0 0.0
2014-Nov-24 12:33N 30°38' E 122°03'0 0.0
2014-Nov-24 11:33N 30°38' E 122°03'0 0.0
2014-Nov-24 10:33N 30°38' E 122°03'0 0.0
2014-Nov-24 09:33N 30°38' E 122°03'0 0.0
2014-Nov-24 08:33N 30°38' E 122°03'0 0.0
2014-Nov-24 07:33N 30°38' E 122°03'0 0.0
2014-Nov-24 06:33N 30°38' E 122°03'0 0.0
2014-Nov-24 05:33N 30°38' E 122°03'2 1.8
2014-Nov-24 04:33N 30°37' E 122°04'10 9.7
2014-Nov-24 03:33N 30°34' E 122°15'1414.0
2014-Nov-24 02:33N 30°30' E 122°31'2 1.6
2014-Nov-24 01:19N 30°29' E 122°32'0 0.1
2014-Nov-24 00:25N 30°29' E 122°32'0 0.3
2014-Nov-23 23:31N 30°28' E 122°32'21 1.4
2014-Nov-23 08:24N 30°22' E 122°55'3116.3
2014-Nov-23 06:30N 29°51' E 122°49'1717.8
2014-Nov-23 05:33N 29°41' E 122°34'1717.5
2014-Nov-23 04:33N 29°48' E 122°15'1111.3
2014-Nov-23 03:33N 29°55' E 122°06'3 2.3
2014-Nov-23 02:16N 29°53' E 122°03'0 0.0
2014-Nov-23 01:33N 29°53' E 122°03'0 0.0
2014-Nov-23 00:33N 29°53' E 122°03'0 0.0
2014-Nov-22 23:33N 29°53' E 122°03'0 0.0
2014-Nov-22 22:33N 29°53' E 122°03'0 0.0
2014-Nov-22 21:33N 29°53' E 122°03'0 0.0
2014-Nov-22 20:33N 29°53' E 122°03'0 0.0
2014-Nov-22 19:33N 29°53' E 122°03'0 0.0
2014-Nov-22 18:33N 29°53' E 122°03'0 0.0
2014-Nov-22 17:33N 29°53' E 122°03'0 0.0
2014-Nov-22 16:33N 29°53' E 122°03'0 0.0
2014-Nov-22 15:33N 29°53' E 122°03'0 0.0
2014-Nov-22 14:32N 29°53' E 122°03'0 0.0
2014-Nov-22 13:33N 29°53' E 122°03'0 0.0
2014-Nov-22 12:33N 29°53' E 122°03'0 0.0
2014-Nov-22 11:33N 29°53' E 122°03'0 0.0
2014-Nov-22 10:34N 29°53' E 122°03'0 0.0
2014-Nov-22 09:33N 29°53' E 122°03'0 0.0
2014-Nov-22 08:33N 29°53' E 122°03'1 0.5
2014-Nov-22 07:33N 29°54' E 122°03'8 7.9
2014-Nov-22 06:33N 29°52' E 122°12'1110.4
2014-Nov-22 05:32N 29°45' E 122°21'4 4.0
2014-Nov-22 04:30N 29°45' E 122°26'0 0.1
2014-Nov-22 03:33N 29°45' E 122°26'0 0.2
2014-Nov-22 02:33N 29°45' E 122°25'0 0.3
2014-Nov-22 01:33N 29°45' E 122°26'4 4.4
2014-Nov-22 00:33N 29°43' E 122°30'8 8.0
2014-Nov-21 23:31N 29°35' E 122°34'13 9.5
2014-Nov-21 22:07N 29°22' E 122°33'33612.2
2014-Nov-20 18:26N 24°35' E 119°15'1112.4
2014-Nov-20 17:33N 24°27' E 119°06'1411.7
2014-Nov-20 16:23N 24°18' E 118°56'4511.8
2014-Nov-20 12:33N 23°48' E 118°18'  

Dump ship's entire track history